Kingman, Arizona
Current Conditions -  °F | °C
As of 7:51 PM on Saturday 25 Oct 2014 (Local Time) from KIGM Reporting Station
Clear Clear  
Wind Chill: 63°   Ceiling: Unl
Heat Index: 63°   Visibility: 10mi
Dew Point: 44°   Wind: 9mph
Humidity: 50%   Direction: 150°SSE
Pressure: 30.05"   Gusts: NA
Location:  35.19°N, 114.05°W
Report Text: KIGM 260251Z AUTO 15008KT 10SM CLR 17/07 A3005 RMK AO2 SLP122 T01720067 57004
Loading
Personal Weather Stations






























Interactive Weather Map
Tropical Storm Tracking
New forecast layout! Learn more

10-Day Weather Forecast

Advertisements
Track Severe Weather on mobile